Time;durP1;ratioP1;P1;durP2;ratioP2;P2;SDS_P1;SDS_P2;PMS_P1;PMS_P2;Temp;Humidity;BMP_temperature;BMP_pressure;BME280_temperature;BME280_humidity;BME280_pressure;Samples;Min_cycle;Max_cycle;Signal;HPM_P1;HPM_P2
2022/06/03 00:00:25;;;;;;;5.05;2.70;;;16.70;55.70;;;;;;5008327;28;20045;-67
2022/06/03 00:03:20;;;;;;;5.07;2.78;;;16.60;55.90;;;;;;5046634;28;20126;-67
2022/06/03 00:06:10;;;;;;;5.53;2.83;;;16.60;56.10;;;;;;5055086;28;20518;-67
2022/06/03 00:09:12;;;;;;;9.93;3.58;;;16.60;56.20;;;;;;5047850;28;20056;-67
2022/06/03 00:12:08;;;;;;;5.30;2.67;;;16.60;56.40;;;;;;5036723;28;20033;-67
2022/06/03 00:14:59;;;;;;;5.68;2.80;;;16.60;56.60;;;;;;5047459;28;20025;-67
2022/06/03 00:17:55;;;;;;;5.93;2.70;;;16.50;56.70;;;;;;5054554;28;20428;-66
2022/06/03 00:20:26;;;;;;;6.85;2.65;;;16.50;56.80;;;;;;5047682;28;20476;-67
2022/06/03 00:23:05;;;;;;;6.22;2.83;;;16.50;56.90;;;;;;5050954;28;20045;-67
2022/06/03 00:26:18;;;;;;;6.03;3.03;;;16.50;57.00;;;;;;5049244;28;20116;-67
2022/06/03 00:28:55;;;;;;;5.32;2.65;;;16.50;57.10;;;;;;5036512;28;20038;-67
2022/06/03 00:31:21;;;;;;;6.47;3.00;;;16.40;57.20;;;;;;5046466;28;20029;-67
2022/06/03 00:34:14;;;;;;;5.47;2.75;;;16.40;57.30;;;;;;5049071;28;20021;-67
2022/06/03 00:36:48;;;;;;;5.95;2.83;;;16.40;57.40;;;;;;5057127;28;20025;-67
2022/06/03 00:39:22;;;;;;;5.82;2.90;;;16.40;57.40;;;;;;5048992;28;20026;-67
2022/06/03 00:42:12;;;;;;;5.55;2.55;;;16.40;57.60;;;;;;5049668;28;20065;-67
2022/06/03 00:44:45;;;;;;;5.18;2.72;;;16.40;57.70;;;;;;5045703;28;20025;-67
2022/06/03 00:47:28;;;;;;;5.30;2.67;;;16.30;57.80;;;;;;5057215;28;20029;-67
2022/06/03 00:50:22;;;;;;;6.18;3.10;;;16.40;57.90;;;;;;5037601;28;20036;-67
2022/06/03 00:53:16;;;;;;;5.18;2.72;;;16.30;57.90;;;;;;5049809;28;20108;-67
2022/06/03 00:55:56;;;;;;;6.95;3.20;;;16.30;58.00;;;;;;5052007;28;20036;-67
2022/06/03 00:58:38;;;;;;;5.97;2.90;;;16.30;58.10;;;;;;5043844;28;20431;-67
2022/06/03 01:01:04;;;;;;;;;;;16.30;58.30;;;;;;5046094;28;20070;-67
2022/06/03 01:04:05;;;;;;;7.25;3.00;;;16.30;58.10;;;;;;5049696;28;19947;-66
2022/06/03 01:06:59;;;;;;;6.33;3.17;;;16.20;58.20;;;;;;5035661;28;20036;-67
2022/06/03 01:09:33;;;;;;;6.78;2.70;;;16.20;58.40;;;;;;5042435;28;20664;-66
2022/06/03 01:12:32;;;;;;;5.40;2.72;;;16.20;58.50;;;;;;5045718;28;20132;-67
2022/06/03 01:15:09;;;;;;;6.88;3.10;;;16.20;58.60;;;;;;5024502;28;20030;-66
2022/06/03 01:17:37;;;;;;;5.13;2.85;;;16.10;58.60;;;;;;5054829;28;20033;-67
2022/06/03 01:20:28;;;;;;;6.18;2.78;;;16.10;58.70;;;;;;5037997;28;20111;-67
2022/06/03 01:23:18;;;;;;;6.40;3.05;;;16.10;58.80;;;;;;5034279;28;20109;-67
2022/06/03 01:25:56;;;;;;;7.20;2.78;;;16.10;58.90;;;;;;5025546;28;20365;-67
2022/06/03 01:28:47;;;;;;;6.47;3.17;;;16.10;59.00;;;;;;5053214;28;20025;-66
2022/06/03 01:31:50;;;;;;;8.27;2.72;;;16.10;59.00;;;;;;5043571;28;20029;-67
2022/06/03 01:34:42;;;;;;;5.75;2.75;;;16.10;59.10;;;;;;5034576;28;20029;-66
2022/06/03 01:37:36;;;;;;;5.90;2.78;;;16.10;59.10;;;;;;5052270;28;20044;-66
2022/06/03 01:40:35;;;;;;;5.95;2.63;;;16.10;59.10;;;;;;5035196;28;20091;-66
2022/06/03 01:43:31;;;;;;;5.30;2.78;;;16.10;59.10;;;;;;5043610;28;20040;-67
2022/06/03 01:45:57;;;;;;;7.05;2.80;;;16.00;59.10;;;;;;5044037;28;20065;-67
2022/06/03 01:48:56;;;;;;;5.72;2.90;;;16.00;59.20;;;;;;5049274;28;20091;-67
2022/06/03 01:51:24;;;;;;;5.25;2.60;;;16.00;59.20;;;;;;5044227;28;20135;-66
2022/06/03 01:54:05;;;;;;;5.47;2.90;;;16.00;59.20;;;;;;5037293;28;20040;-66
2022/06/03 01:57:01;;;;;;;6.35;2.58;;;16.00;59.30;;;;;;5050811;28;20442;-67
2022/06/03 02:00:03;;;;;;;6.47;3.10;;;16.00;60.00;;;;;;5042073;28;20078;-67
2022/06/03 02:03:05;;;;;;;5.65;2.90;;;16.00;59.30;;;;;;5055146;28;20365;-67
2022/06/03 02:05:40;;;;;;;6.25;3.03;;;16.00;59.30;;;;;;5050265;28;20485;-67
2022/06/03 02:08:50;;;;;;;5.97;2.70;;;16.00;59.40;;;;;;5048391;28;20025;-67
2022/06/03 02:11:47;;;;;;;6.82;2.85;;;16.00;59.40;;;;;;5053386;28;20134;-66
2022/06/03 02:14:57;;;;;;;5.50;2.63;;;15.90;59.40;;;;;;5049955;28;20033;-67
2022/06/03 02:17:55;;;;;;;6.80;2.92;;;15.90;59.40;;;;;;5048357;28;20072;-67
2022/06/03 02:20:58;;;;;;;6.20;3.00;;;15.90;59.50;;;;;;5043764;28;20032;-67
2022/06/03 02:23:44;;;;;;;6.22;3.05;;;15.90;59.50;;;;;;5049405;28;20026;-66
2022/06/03 02:26:31;;;;;;;5.97;3.05;;;15.90;59.50;;;;;;5048883;28;20036;-66
2022/06/03 02:32:23;;;;;;;;;;;15.90;59.50;;;;;;5041900;28;20043;-67
2022/06/03 02:35:01;;;;;;;5.05;2.70;;;15.90;59.40;;;;;;5046794;28;19908;-66
2022/06/03 02:37:52;;;;;;;5.07;2.33;;;15.80;59.30;;;;;;5046337;28;20034;-67
2022/06/03 02:40:36;;;;;;;5.63;2.87;;;15.90;59.40;;;;;;5047106;28;20036;-67
2022/06/03 02:43:31;;;;;;;5.70;2.60;;;15.90;59.40;;;;;;5054785;28;20282;-66
2022/06/03 02:46:31;;;;;;;5.22;2.72;;;15.90;59.40;;;;;;5042531;28;20040;-67
2022/06/03 02:49:43;;;;;;;5.35;2.90;;;15.90;59.30;;;;;;5052389;28;20029;-67
2022/06/03 02:52:42;;;;;;;5.57;2.90;;;15.90;59.20;;;;;;5015773;28;20033;-66
2022/06/03 02:55:29;;;;;;;6.28;2.90;;;15.90;59.30;;;;;;5006358;28;20041;-67
2022/06/03 02:58:22;;;;;;;5.40;2.85;;;15.90;59.40;;;;;;5004585;28;20026;-66
2022/06/03 03:01:07;;;;;;;5.60;2.70;;;15.80;59.40;;;;;;5021841;28;20040;-66
2022/06/03 03:04:10;;;;;;;7.85;2.92;;;15.80;59.40;;;;;;5012416;28;20038;-66
2022/06/03 03:06:42;;;;;;;5.85;2.70;;;15.80;59.30;;;;;;5013228;28;20057;-66
2022/06/03 03:09:34;;;;;;;7.38;2.90;;;15.80;59.30;;;;;;5028530;28;20041;-66
2022/06/03 03:12:21;;;;;;;6.20;2.80;;;15.90;59.40;;;;;;5024709;28;20034;-66
2022/06/03 03:14:47;;;;;;;5.90;2.65;;;15.80;59.20;;;;;;5026293;28;20037;-67
2022/06/03 03:17:29;;;;;;;6.13;3.20;;;15.80;59.20;;;;;;5028568;28;20036;-66
2022/06/03 03:20:16;;;;;;;6.70;3.00;;;15.80;59.30;;;;;;4991834;28;20026;-66
2022/06/03 03:23:19;;;;;;;5.93;3.10;;;15.80;59.30;;;;;;5025097;28;20075;-67
2022/06/03 03:26:03;;;;;;;6.60;3.20;;;15.80;59.30;;;;;;5030124;28;20513;-67
2022/06/03 03:28:53;;;;;;;6.05;2.85;;;15.80;59.30;;;;;;5035596;28;20045;-66
2022/06/03 03:31:38;;;;;;;6.30;2.67;;;15.80;59.30;;;;;;5033089;28;20029;-66
2022/06/03 03:34:18;;;;;;;6.35;3.00;;;15.80;59.40;;;;;;5036161;28;20501;-66
2022/06/03 03:37:17;;;;;;;5.32;2.72;;;15.80;59.30;;;;;;5032193;28;20033;-66
2022/06/03 03:40:25;;;;;;;6.07;3.00;;;15.80;59.20;;;;;;5032491;28;20022;-66
2022/06/03 03:43:15;;;;;;;5.88;2.70;;;15.80;59.20;;;;;;5037224;28;20043;-66
2022/06/03 03:45:44;;;;;;;5.07;2.60;;;15.80;59.30;;;;;;5032438;28;20043;-67
2022/06/03 03:48:51;;;;;;;5.28;2.75;;;15.70;59.20;;;;;;5031940;28;20443;-66
2022/06/03 03:51:53;;;;;;;7.13;3.00;;;15.80;59.20;;;;;;5012308;28;20121;-67
2022/06/03 03:54:31;;;;;;;6.53;3.10;;;15.70;59.10;;;;;;5026216;28;20042;-67
2022/06/03 03:57:27;;;;;;;6.18;3.22;;;15.70;59.20;;;;;;5025939;28;20041;-67
2022/06/03 04:00:14;;;;;;;6.70;3.03;;;15.70;59.20;;;;;;5029198;28;20059;-66
2022/06/03 04:03:08;;;;;;;7.55;3.10;;;15.70;59.20;;;;;;5024398;28;20046;-67
2022/06/03 04:06:01;;;;;;;6.70;3.20;;;15.80;59.20;;;;;;4934406;28;20356;-66
2022/06/03 04:08:51;;;;;;;5.70;3.00;;;15.70;59.20;;;;;;4952017;29;20372;-66
2022/06/03 04:11:42;;;;;;;6.03;3.08;;;15.80;59.20;;;;;;4921021;28;20078;-66
2022/06/03 04:14:08;;;;;;;;;;;15.80;59.10;;;;;;4936766;29;20451;-67
2022/06/03 04:16:53;;;;;;;6.82;2.97;;;15.80;59.10;;;;;;4933927;29;19910;-67
2022/06/03 04:19:56;;;;;;;6.45;3.40;;;15.70;59.10;;;;;;4951912;28;20031;-66
2022/06/03 04:22:59;;;;;;;6.10;3.13;;;15.70;59.10;;;;;;4952575;28;20043;-66
2022/06/03 04:25:49;;;;;;;6.93;3.15;;;15.70;59.80;;;;;;4945416;28;20054;-67
2022/06/03 04:28:26;;;;;;;7.18;3.33;;;15.70;59.20;;;;;;4959766;28;20046;-67
2022/06/03 04:31:12;;;;;;;8.75;3.58;;;15.70;59.30;;;;;;4951247;29;20067;-67
2022/06/03 04:33:44;;;;;;;5.72;3.03;;;15.70;59.40;;;;;;4958437;28;20063;-67
2022/06/03 04:36:37;;;;;;;6.45;3.13;;;15.80;59.50;;;;;;4967985;28;20037;-67
2022/06/03 04:39:12;;;;;;;6.20;3.63;;;15.70;59.40;;;;;;4944018;28;20059;-67
2022/06/03 04:42:02;;;;;;;6.53;3.53;;;15.70;59.50;;;;;;4978005;28;20366;-68
2022/06/03 04:45:20;;;;;;;5.90;3.33;;;15.70;59.60;;;;;;5019595;28;20037;-67
2022/06/03 04:48:24;;;;;;;7.07;3.47;;;15.70;59.70;;;;;;5047832;28;20056;-67
2022/06/03 04:50:50;;;;;;;6.22;3.35;;;15.70;59.70;;;;;;5046450;28;20059;-67
2022/06/03 04:53:43;;;;;;;5.82;3.25;;;15.70;59.70;;;;;;5053660;28;20430;-67
2022/06/03 04:56:30;;;;;;;7.75;3.47;;;15.70;59.70;;;;;;5050468;28;20017;-67
2022/06/03 04:59:23;;;;;;;6.60;3.40;;;15.80;59.70;;;;;;5042928;28;20040;-67
2022/06/03 05:02:29;;;;;;;6.30;3.15;;;15.80;59.80;;;;;;5042907;28;20038;-66
2022/06/03 05:05:16;;;;;;;5.97;3.35;;;15.90;59.80;;;;;;5059005;28;20033;-67
2022/06/03 05:08:12;;;;;;;6.88;3.63;;;15.90;59.60;;;;;;5054866;28;20033;-67
2022/06/03 05:10:59;;;;;;;7.60;3.78;;;16.00;59.60;;;;;;5047818;28;20058;-67
2022/06/03 05:13:59;;;;;;;6.70;3.17;;;16.40;58.80;;;;;;5026066;28;20052;-67
2022/06/03 05:17:02;;;;;;;5.53;3.20;;;17.60;56.70;;;;;;5050821;28;20096;-66
2022/06/03 05:19:30;;;;;;;5.68;3.00;;;18.50;54.90;;;;;;5049379;28;20029;-67
2022/06/03 05:22:33;;;;;;;5.32;2.78;;;18.30;54.90;;;;;;5049173;28;20029;-67
2022/06/03 05:25:07;;;;;;;6.53;3.35;;;18.00;55.50;;;;;;5054817;28;20041;-66
2022/06/03 05:28:05;;;;;;;6.72;3.30;;;17.80;56.00;;;;;;5049764;28;20025;-66
2022/06/03 05:30:57;;;;;;;7.15;3.28;;;17.70;56.20;;;;;;5053188;28;20047;-66
2022/06/03 05:33:35;;;;;;;6.82;3.00;;;17.70;56.50;;;;;;5051434;28;20033;-67
2022/06/03 05:36:36;;;;;;;6.10;3.38;;;17.70;56.70;;;;;;5051976;28;20120;-67
2022/06/03 05:39:26;;;;;;;7.32;3.45;;;17.70;56.50;;;;;;5044261;28;20129;-65
2022/06/03 05:45:09;;;;;;;6.57;3.60;;;17.80;56.30;;;;;;5052551;28;20203;-65
2022/06/03 05:47:44;;;;;;;5.85;2.80;;;17.90;56.20;;;;;;5029389;28;20056;-65
2022/06/03 05:50:22;;;;;;;5.97;3.28;;;18.00;56.10;;;;;;5034560;28;20048;-65
2022/06/03 05:53:07;;;;;;;6.72;3.22;;;18.00;55.90;;;;;;5035832;28;20090;-65
2022/06/03 05:55:44;;;;;;;6.75;3.28;;;18.10;55.90;;;;;;5046731;28;20515;-65
2022/06/03 05:58:38;;;;;;;6.35;3.22;;;18.20;55.70;;;;;;5035891;28;20038;-65
2022/06/03 06:01:31;;;;;;;6.20;3.15;;;18.20;55.50;;;;;;5046196;28;20029;-65
2022/06/03 06:04:44;;;;;;;7.18;3.25;;;18.40;55.40;;;;;;5047196;28;20179;-64
2022/06/03 06:07:50;;;;;;;6.25;3.50;;;18.40;55.20;;;;;;4989725;28;20078;-65
2022/06/03 06:10:48;;;;;;;6.78;3.22;;;18.60;55.00;;;;;;5011822;28;20092;-65
2022/06/03 06:13:22;;;;;;;8.48;3.08;;;18.60;55.10;;;;;;5008023;28;20022;-65
2022/06/03 06:16:03;;;;;;;6.30;3.50;;;18.80;55.00;;;;;;4991342;28;20470;-65
2022/06/03 06:18:54;;;;;;;6.95;3.40;;;18.90;54.60;;;;;;4985094;28;20042;-65
2022/06/03 06:21:40;;;;;;;5.95;2.78;;;19.00;54.40;;;;;;5013170;28;20471;-65
2022/06/03 06:24:44;;;;;;;6.50;3.33;;;19.10;54.20;;;;;;4978037;28;20568;-66
2022/06/03 06:27:33;;;;;;;6.50;3.38;;;19.20;53.90;;;;;;5002541;28;20030;-66
2022/06/03 06:30:12;;;;;;;9.10;3.60;;;19.40;53.80;;;;;;4990779;28;20073;-66
2022/06/03 06:32:40;;;;;;;8.07;3.85;;;19.50;53.50;;;;;;5009325;28;20026;-66
2022/06/03 06:35:43;;;;;;;7.47;3.75;;;19.60;53.30;;;;;;4992846;28;20042;-65
2022/06/03 06:38:25;;;;;;;6.43;3.50;;;19.80;53.00;;;;;;4980384;28;20046;-66
2022/06/03 06:40:51;;;;;;;7.30;3.17;;;19.90;52.80;;;;;;4994625;28;20454;-66
2022/06/03 06:43:41;;;;;;;5.78;3.17;;;20.00;52.50;;;;;;5020235;28;20052;-66
2022/06/03 06:46:19;;;;;;;9.75;3.38;;;20.10;52.40;;;;;;5044887;28;20115;-66
2022/06/03 06:48:55;;;;;;;5.60;3.25;;;20.20;52.20;;;;;;5040701;28;20041;-67
2022/06/03 06:51:36;;;;;;;6.93;3.28;;;20.30;52.00;;;;;;5041221;28;20485;-67
2022/06/03 06:54:37;;;;;;;6.15;3.13;;;20.40;51.70;;;;;;5047245;28;20036;-68
2022/06/03 06:57:10;;;;;;;7.13;3.40;;;20.50;51.70;;;;;;5046379;28;20044;-68
2022/06/03 06:59:38;;;;;;;6.88;3.42;;;20.70;51.50;;;;;;5050004;28;20042;-68
2022/06/03 07:02:20;;;;;;;6.57;3.05;;;20.80;51.10;;;;;;5049033;28;20119;-68
2022/06/03 07:05:17;;;;;;;5.85;3.13;;;21.00;50.90;;;;;;5048799;28;20112;-68
2022/06/03 07:07:51;;;;;;;7.57;3.13;;;21.10;50.80;;;;;;5050131;28;20033;-68
2022/06/03 07:10:40;;;;;;;7.00;3.38;;;21.30;50.30;;;;;;5034303;28;20534;-68
2022/06/03 07:13:15;;;;;;;5.80;3.00;;;21.40;50.20;;;;;;5049455;28;20017;-68
2022/06/03 07:16:10;;;;;;;5.90;3.42;;;21.60;50.10;;;;;;5051723;28;20457;-67
2022/06/03 07:22:08;;;;;;;7.30;3.30;;;21.90;49.20;;;;;;5041729;28;20087;-68
2022/06/03 07:24:57;;;;;;;6.97;3.15;;;22.10;49.00;;;;;;5054038;28;20331;-68
2022/06/03 07:27:45;;;;;;;5.43;2.60;;;22.20;48.80;;;;;;5051207;28;20536;-71
2022/06/03 07:30:36;;;;;;;5.95;3.00;;;22.30;48.60;;;;;;5042550;28;20355;-68
2022/06/03 07:33:06;;;;;;;5.80;3.10;;;22.50;48.30;;;;;;5052548;28;20056;-68
2022/06/03 07:35:41;;;;;;;7.22;3.00;;;22.60;48.10;;;;;;5054247;28;20044;-67
2022/06/03 07:38:31;;;;;;;5.63;2.92;;;22.80;47.80;;;;;;5054480;28;20025;-68
2022/06/03 07:41:25;;;;;;;6.13;2.85;;;23.00;47.50;;;;;;5054502;28;20454;-67
2022/06/03 07:44:00;;;;;;;5.15;2.75;;;23.10;47.20;;;;;;5053757;28;20065;-68
2022/06/03 07:46:33;;;;;;;4.90;2.80;;;23.30;47.00;;;;;;5062667;28;20037;-69
2022/06/03 07:49:04;;;;;;;6.40;3.05;;;23.40;46.80;;;;;;5047974;28;20454;-68
2022/06/03 07:51:36;;;;;;;5.57;2.90;;;23.50;46.70;;;;;;5048396;28;20029;-69
2022/06/03 07:54:11;;;;;;;7.57;2.97;;;23.60;46.50;;;;;;5053772;28;20018;-69
2022/06/03 07:56:38;;;;;;;5.28;2.42;;;23.70;46.20;;;;;;5054175;28;20113;-69
2022/06/03 07:59:12;;;;;;;5.07;2.60;;;23.90;46.20;;;;;;5050458;28;20029;-69
2022/06/03 08:01:42;;;;;;;5.38;2.40;;;24.00;45.90;;;;;;5054251;28;20087;-68
2022/06/03 08:04:30;;;;;;;7.28;2.60;;;24.10;45.80;;;;;;5053810;28;20090;-69
2022/06/03 08:12:29;;;;;;;6.50;2.40;;;24.50;45.10;;;;;;5044628;28;20056;-68
2022/06/03 08:14:56;;;;;;;5.30;2.50;;;24.50;44.90;;;;;;5050793;28;20028;-68
2022/06/03 08:17:23;;;;;;;5.07;2.30;;;24.60;44.70;;;;;;5043998;28;20103;-68
2022/06/03 08:19:50;;;;;;;4.70;2.10;;;24.70;44.70;;;;;;5038174;28;20061;-68
2022/06/03 08:22:20;;;;;;;9.10;2.63;;;24.80;44.70;;;;;;5048120;28;20120;-68
2022/06/03 08:24:54;;;;;;;5.60;1.88;;;24.90;44.80;;;;;;5056653;28;20430;-67
2022/06/03 08:27:25;;;;;;;4.18;1.90;;;25.00;44.90;;;;;;5043372;28;20025;-69
2022/06/03 08:30:00;;;;;;;4.32;1.75;;;25.10;44.80;;;;;;5049443;28;20025;-69
2022/06/03 08:32:32;;;;;;;4.25;2.25;;;25.20;44.30;;;;;;5048824;28;20035;-69
2022/06/03 08:35:02;;;;;;;3.30;1.83;;;25.30;44.10;;;;;;5054636;28;20033;-69
2022/06/03 08:37:47;;;;;;;4.10;1.77;;;25.40;44.50;;;;;;5052618;28;20037;-69
2022/06/03 08:40:27;;;;;;;4.93;2.03;;;25.50;43.70;;;;;;5055427;28;20024;-69
2022/06/03 08:43:05;;;;;;;4.60;2.00;;;25.50;43.40;;;;;;5048268;28;20021;-69
2022/06/03 08:45:44;;;;;;;5.78;2.10;;;25.70;43.30;;;;;;5049449;28;20358;-69
2022/06/03 08:48:15;;;;;;;4.18;1.70;;;25.70;43.30;;;;;;5040767;28;20025;-69
2022/06/03 08:50:51;;;;;;;4.50;1.87;;;25.80;43.00;;;;;;5043616;28;20462;-69
2022/06/03 08:53:26;;;;;;;3.78;2.08;;;26.00;42.80;;;;;;5047945;28;20286;-69
2022/06/03 08:55:54;;;;;;;4.50;2.10;;;26.00;43.10;;;;;;5051870;28;20025;-69
2022/06/03 08:58:44;;;;;;;4.65;1.80;;;26.10;42.50;;;;;;5044305;28;20447;-69
2022/06/03 09:01:21;;;;;;;4.68;1.67;;;26.30;42.50;;;;;;5046276;28;20366;-69
2022/06/03 09:04:21;;;;;;;3.13;1.50;;;26.30;42.60;;;;;;5050969;28;20048;-69
2022/06/03 09:07:17;;;;;;;2.75;1.58;;;26.50;42.50;;;;;;5052257;28;20037;-69
2022/06/03 09:10:10;;;;;;;3.42;1.60;;;26.60;41.50;;;;;;5049363;28;20144;-69
2022/06/03 09:13:00;;;;;;;4.45;1.73;;;26.70;41.50;;;;;;5042529;28;20040;-69
2022/06/03 09:15:29;;;;;;;3.03;1.48;;;26.90;41.20;;;;;;5053868;28;20029;-69
2022/06/03 09:17:59;;;;;;;4.80;1.95;;;26.90;40.90;;;;;;5056575;28;20373;-69
2022/06/03 09:20:34;;;;;;;3.23;1.53;;;27.00;40.80;;;;;;5049389;28;20051;-69
2022/06/03 09:23:14;;;;;;;4.07;1.70;;;27.00;40.30;;;;;;5050873;28;20120;-70
2022/06/03 09:25:48;;;;;;;3.90;1.45;;;27.00;40.30;;;;;;5053236;28;20052;-69
2022/06/03 09:28:19;;;;;;;3.78;1.58;;;27.10;40.30;;;;;;5056212;28;20512;-69
2022/06/03 09:30:46;;;;;;;5.18;1.73;;;27.10;40.20;;;;;;5047813;28;20037;-69
2022/06/03 09:33:15;;;;;;;3.30;1.60;;;27.10;40.00;;;;;;5054685;28;20090;-69
2022/06/03 09:35:44;;;;;;;2.50;1.50;;;27.20;40.00;;;;;;5045659;28;20425;-69
2022/06/03 09:38:12;;;;;;;3.85;1.80;;;27.20;39.80;;;;;;5033420;28;20018;-69
2022/06/03 09:40:43;;;;;;;2.92;1.67;;;27.20;39.50;;;;;;5047075;28;20116;-69
2022/06/03 09:43:23;;;;;;;;;;;27.30;39.60;;;;;;5055443;28;20028;-69
2022/06/03 09:45:54;;;;;;;3.83;1.60;;;27.40;39.80;;;;;;5028003;28;19909;-69
2022/06/03 09:48:26;;;;;;;4.05;1.58;;;27.40;39.50;;;;;;5050176;28;20111;-69
2022/06/03 09:50:54;;;;;;;3.25;1.60;;;27.50;39.20;;;;;;5052248;28;20039;-69
2022/06/03 09:53:24;;;;;;;3.20;1.50;;;27.60;39.10;;;;;;5038091;28;20020;-69
2022/06/03 09:55:53;;;;;;;3.83;1.58;;;27.70;38.50;;;;;;5047526;28;20072;-69
2022/06/03 09:58:23;;;;;;;2.35;1.30;;;27.70;38.10;;;;;;5042520;28;20026;-69
2022/06/03 10:00:53;;;;;;;3.83;1.55;;;27.80;37.80;;;;;;5040223;28;20044;-69
2022/06/03 10:03:20;;;;;;;3.47;1.50;;;27.90;37.80;;;;;;5039460;28;20434;-69
2022/06/03 10:05:50;;;;;;;3.50;1.40;;;28.00;37.60;;;;;;5043054;28;20144;-68
2022/06/03 10:08:19;;;;;;;2.33;1.40;;;28.00;37.40;;;;;;5036274;28;20398;-68
2022/06/03 10:13:33;;;;;;;4.20;1.80;;;28.00;37.50;;;;;;5048160;28;20036;-68
2022/06/03 10:16:00;;;;;;;3.90;1.67;;;28.00;37.60;;;;;;5054387;28;20114;-68
2022/06/03 10:18:29;;;;;;;4.07;1.83;;;28.00;37.70;;;;;;5053597;28;20108;-68
2022/06/03 10:21:16;;;;;;;4.00;1.80;;;28.00;37.80;;;;;;5044848;28;20036;-68
2022/06/03 10:23:48;;;;;;;4.85;1.75;;;28.00;37.90;;;;;;5039297;28;20120;-68
2022/06/03 10:26:48;;;;;;;6.15;2.03;;;28.00;37.60;;;;;;5045132;28;20060;-68
2022/06/03 10:29:21;;;;;;;3.17;1.33;;;28.00;37.20;;;;;;5055493;28;20158;-68
2022/06/03 10:31:49;;;;;;;3.15;1.40;;;28.00;37.20;;;;;;5046877;28;20036;-69
2022/06/03 10:34:21;;;;;;;3.95;1.80;;;28.00;37.00;;;;;;5031874;28;20348;-68
2022/06/03 10:36:49;;;;;;;3.58;1.70;;;27.90;36.60;;;;;;5025076;28;20176;-69
2022/06/03 10:39:19;;;;;;;4.65;1.80;;;27.90;36.60;;;;;;5050249;28;20029;-68
2022/06/03 10:41:48;;;;;;;3.53;1.65;;;27.90;36.30;;;;;;5046734;28;20030;-67
2022/06/03 10:44:17;;;;;;;3.38;1.60;;;28.00;36.30;;;;;;5040355;28;20028;-68
2022/06/03 10:47:16;;;;;;;4.15;1.58;;;28.00;36.40;;;;;;5036880;28;20389;-68
2022/06/03 10:49:51;;;;;;;4.22;1.77;;;28.00;36.50;;;;;;5033303;28;20036;-68
2022/06/03 11:03:35;;;;;;;3.80;1.60;;;28.20;36.60;;;;;;5038940;28;20289;-68
2022/06/03 11:06:14;;;;;;;3.60;1.48;;;28.20;36.70;;;;;;5037977;28;20033;-69
2022/06/03 11:08:58;;;;;;;2.50;1.50;;;28.30;36.70;;;;;;5038761;28;20039;-68
2022/06/03 11:11:31;;;;;;;3.97;1.70;;;28.30;36.40;;;;;;5037197;28;20029;-69
2022/06/03 11:14:09;;;;;;;3.05;1.60;;;28.30;36.10;;;;;;5037704;28;20131;-68
2022/06/03 11:16:34;;;;;;;3.00;1.45;;;28.30;36.00;;;;;;5034952;28;20030;-68
2022/06/03 11:19:17;;;;;;;3.58;1.65;;;28.30;35.90;;;;;;5033719;28;20350;-68
2022/06/03 11:21:43;;;;;;;3.20;1.40;;;28.30;35.80;;;;;;5020936;28;20032;-69
2022/06/03 11:24:09;;;;;;;2.30;1.30;;;28.30;35.80;;;;;;5036583;28;20107;-68
2022/06/03 11:26:40;;;;;;;3.33;1.40;;;28.30;35.80;;;;;;5026825;28;20045;-68
2022/06/03 11:29:17;;;;;;;3.10;1.52;;;28.30;35.60;;;;;;5035198;28;20087;-69
2022/06/03 11:31:46;;;;;;;2.53;1.50;;;28.30;35.30;;;;;;5036953;28;20094;-68
2022/06/03 11:34:16;;;;;;;3.90;1.45;;;28.30;35.30;;;;;;5032856;28;20097;-68
2022/06/03 11:36:51;;;;;;;3.10;1.50;;;28.30;35.10;;;;;;5035738;28;20033;-68
2022/06/03 11:39:25;;;;;;;4.65;1.40;;;28.30;35.00;;;;;;5034291;28;20095;-69
2022/06/03 11:42:01;;;;;;;2.40;1.30;;;28.30;35.00;;;;;;5035282;28;20037;-69
2022/06/03 11:44:36;;;;;;;3.08;1.40;;;28.20;34.80;;;;;;5035498;28;20514;-69
2022/06/03 11:47:32;;;;;;;3.17;1.50;;;28.20;34.80;;;;;;5036820;28;20034;-69
2022/06/03 11:49:58;;;;;;;3.35;1.50;;;28.20;34.60;;;;;;5037645;28;20045;-69
2022/06/03 11:52:23;;;;;;;2.90;1.40;;;28.20;34.70;;;;;;5035299;28;20059;-69
2022/06/03 11:54:52;;;;;;;3.65;1.50;;;28.20;34.30;;;;;;5045844;28;20046;-69
2022/06/03 11:57:18;;;;;;;3.10;1.58;;;28.10;34.20;;;;;;5042750;28;20040;-69
2022/06/03 11:59:59;;;;;;;3.33;1.50;;;28.10;34.80;;;;;;5042597;28;20017;-69
2022/06/03 12:02:38;;;;;;;3.72;1.65;;;28.10;34.30;;;;;;5039201;28;20037;-70
2022/06/03 12:05:19;;;;;;;3.28;1.45;;;28.00;34.60;;;;;;5043580;28;20029;-70
2022/06/03 12:08:02;;;;;;;3.05;1.52;;;27.90;34.60;;;;;;5038645;28;20030;-69
2022/06/03 12:10:45;;;;;;;3.05;1.50;;;27.80;34.40;;;;;;5046720;28;20111;-69
2022/06/03 12:13:21;;;;;;;4.53;1.50;;;27.70;34.50;;;;;;5036241;28;20439;-70
2022/06/03 12:15:52;;;;;;;2.63;1.50;;;27.60;34.80;;;;;;5040311;28;20082;-69
2022/06/03 12:18:37;;;;;;;4.65;1.60;;;27.60;34.90;;;;;;5037053;28;20040;-69
2022/06/03 12:21:33;;;;;;;2.88;1.50;;;27.50;34.80;;;;;;5038147;28;20338;-69
2022/06/03 12:24:37;;;;;;;3.65;1.83;;;27.40;35.10;;;;;;5035390;28;20025;-69
2022/06/03 12:27:10;;;;;;;4.30;1.65;;;27.20;35.30;;;;;;5035118;28;20394;-69
2022/06/03 12:29:41;;;;;;;4.32;1.90;;;27.10;35.40;;;;;;5037604;28;20401;-69
2022/06/03 12:32:23;;;;;;;2.67;1.40;;;27.10;35.40;;;;;;5039515;28;20026;-69
2022/06/03 12:34:49;;;;;;;3.00;1.30;;;27.00;35.50;;;;;;5047089;28;20063;-69
2022/06/03 12:37:27;;;;;;;2.70;1.30;;;26.90;35.70;;;;;;5042067;28;20442;-70
2022/06/03 12:40:04;;;;;;;2.75;1.45;;;26.90;35.80;;;;;;5032158;28;20060;-69
2022/06/03 12:42:38;;;;;;;2.95;1.60;;;26.90;36.50;;;;;;5044996;28;20039;-68
2022/06/03 12:45:04;;;;;;;4.10;1.70;;;26.90;36.10;;;;;;5057258;28;20041;-68
2022/06/03 12:47:36;;;;;;;2.50;1.50;;;26.80;36.00;;;;;;5044222;28;20029;-68
2022/06/03 12:50:05;;;;;;;4.18;1.60;;;26.70;35.90;;;;;;5049524;28;20065;-68
2022/06/03 12:52:31;;;;;;;2.15;1.40;;;26.70;36.10;;;;;;5041909;28;20427;-68
2022/06/03 12:54:59;;;;;;;2.97;1.42;;;26.60;36.10;;;;;;5050096;28;20037;-68
2022/06/03 12:57:31;;;;;;;3.10;1.50;;;26.60;36.20;;;;;;5037419;28;20485;-68
2022/06/03 13:00:03;;;;;;;3.05;1.50;;;26.50;36.10;;;;;;5050420;28;20028;-70
2022/06/03 13:02:35;;;;;;;2.78;1.30;;;26.50;36.30;;;;;;5055627;28;20079;-67
2022/06/03 13:05:09;;;;;;;4.53;1.73;;;26.50;36.70;;;;;;5035597;28;20260;-66
2022/06/03 13:07:36;;;;;;;4.43;1.55;;;26.50;36.70;;;;;;5045420;28;20052;-67
2022/06/03 13:10:02;;;;;;;5.93;1.50;;;26.40;36.70;;;;;;5056561;28;20053;-67
2022/06/03 13:12:30;;;;;;;3.28;1.42;;;26.40;36.90;;;;;;5047646;28;20107;-67
2022/06/03 13:15:16;;;;;;;2.63;1.50;;;26.40;37.10;;;;;;5052046;28;20066;-67
2022/06/03 13:18:18;;;;;;;2.40;1.40;;;26.50;37.10;;;;;;5040893;28;20331;-67
2022/06/03 13:20:50;;;;;;;3.30;1.52;;;26.40;36.80;;;;;;5050435;28;20037;-67
2022/06/03 13:23:35;;;;;;;3.72;1.60;;;26.30;36.80;;;;;;5045318;28;20087;-66
2022/06/03 13:26:22;;;;;;;2.83;1.48;;;26.30;36.90;;;;;;5046264;28;20025;-67
2022/06/03 13:28:49;;;;;;;2.95;1.45;;;26.30;37.30;;;;;;5023988;28;20024;-67
2022/06/03 13:31:18;;;;;;;5.40;1.63;;;26.20;37.20;;;;;;5055244;28;20056;-67
2022/06/03 13:33:59;;;;;;;3.08;1.65;;;26.10;37.20;;;;;;5024486;28;20428;-67
2022/06/03 13:36:52;;;;;;;3.88;1.98;;;26.10;37.20;;;;;;5050658;28;20039;-67
2022/06/03 13:39:24;;;;;;;3.13;1.50;;;26.10;37.20;;;;;;5048597;28;20041;-67
2022/06/03 13:45:03;;;;;;;3.80;1.83;;;26.00;37.20;;;;;;5048654;28;20526;-71
2022/06/03 13:47:56;;;;;;;6.10;1.60;;;26.00;37.20;;;;;;5040113;28;20053;-74
2022/06/03 13:50:31;;;;;;;4.20;1.70;;;26.00;37.30;;;;;;5046750;28;20037;-68
2022/06/03 13:53:06;;;;;;;4.53;1.70;;;26.00;37.40;;;;;;5042519;28;20072;-68
2022/06/03 13:55:34;;;;;;;4.68;1.60;;;25.90;37.30;;;;;;5051084;28;20029;-67
2022/06/03 13:58:15;;;;;;;3.60;1.92;;;25.90;37.50;;;;;;5042665;28;20029;-67
2022/06/03 14:00:49;;;;;;;2.42;1.30;;;25.80;37.20;;;;;;5040058;28;20048;-67
2022/06/03 14:03:23;;;;;;;3.42;1.60;;;25.70;37.20;;;;;;5046037;28;20032;-67
2022/06/03 14:05:58;;;;;;;2.85;1.45;;;25.70;37.30;;;;;;5038165;28;20112;-67
2022/06/03 14:08:34;;;;;;;3.47;1.70;;;25.70;37.30;;;;;;5044047;28;20032;-67
2022/06/03 14:11:06;;;;;;;2.80;1.40;;;25.70;37.40;;;;;;5039028;28;20123;-68
2022/06/03 14:13:51;;;;;;;3.47;1.52;;;25.70;37.40;;;;;;5039385;28;20033;-65
2022/06/03 14:16:46;;;;;;;3.75;1.50;;;25.70;37.40;;;;;;5037267;28;20025;-65
2022/06/03 14:19:11;;;;;;;3.40;1.50;;;25.60;37.50;;;;;;5039615;28;20446;-65
2022/06/03 14:21:37;;;;;;;3.45;1.60;;;25.60;37.50;;;;;;5043235;28;20033;-65
2022/06/03 14:24:26;;;;;;;3.78;1.45;;;25.70;37.70;;;;;;5039592;28;20411;-65
2022/06/03 14:26:59;;;;;;;3.45;1.38;;;25.70;37.80;;;;;;5036313;28;20041;-65
2022/06/03 14:29:35;;;;;;;3.63;1.67;;;25.60;37.90;;;;;;5048953;28;20056;-64
2022/06/03 14:32:08;;;;;;;5.85;1.83;;;25.60;38.00;;;;;;5046982;28;20089;-66
2022/06/03 14:34:44;;;;;;;2.35;1.48;;;25.60;37.80;;;;;;5042530;28;20025;-66